Alexandria, OH

10:19 AM EDT on October 23, 2014 (GMT -0400)
Fairfield County | Change Station
CLOSE
Current Station
Airport
Location: Lancaster,
Elevation: 869 ft
Nearby Weather Stations

Elev 869 ft 39.76 °N, 82.66 °W | Updated 16 minutes ago

Overcast
Overcast
45 °F
Feels Like 44 °F
N
4
Wind Variable Wind from Variable

Today
High -- | Low -- °F
--% Chance of Precip.
Yesterday
High -- | Low -- °F
Precip. -- in
7:49 AM 6:39 PM
Waning Crescent, 0% visible
Pressure 30.25 in
Visibility 5.0 miles
Clouds Overcast 500 ft
Windchill 44 °F
Dew Point 42 °F
Humidity 90%
Rainfall 0.00 in
Snow Depth Not available.
UV 1 out of 12
Pollen 1.50 out of 12
Ozone Good
PM2.5 Moderate
Flu Activity Sporadic
SPECI KLHQ 231403Z AUTO VRB03KT 5SM BR OVC005 07/06 A3025 RMK AO2 T00720056

More Conditions Fewer Conditions

Pressure 30.25 in
Visibility 5.0 miles
Clouds Overcast 500 ft
Windchill 44 °F
Dew Point 42 °F
Humidity 90%
Rainfall 0.00 in
Snow Depth Not available.
UV 1 out of 12
Pollen 1.50 out of 12
Ozone Good
PM2.5 Moderate
Flu Activity Sporadic
SPECI KLHQ 231403Z AUTO VRB03KT 5SM BR OVC005 07/06 A3025 RMK AO2 T00720056

More Conditions Fewer Conditions

10-Day Weather Forecast

Almanac

Astronomy

Oct. 23, 2014 Rise Set
Actual Time 7:49 AM EDT 6:39 PM EDT
Civil Twilight 7:21 AM EDT 7:06 PM EDT
Nautical Twilight 6:50 AM EDT 7:38 PM EDT
Astronomical Twilight 6:18 AM EDT 8:09 PM EDT
Moon 7:28 AM EDT 6:40 PM EDT
Length of Visible Light 11h 45m
Length of Day
10h 49m
Tomorrow will be 2m 28s shorter.
Waning Crescent, 0% of the Moon is Illuminated
Today
Waning Crescent
Oct 23
New
Oct 30
First Quarter
Nov 6
Full
Nov 14
Last Quarter

Today's Extremes

State Highs State Lows

Community

WunderPhotos

Upload Photos

1,764,256 photos uploaded!

Nearby

Air Quality

  Air Quality AQ Index Pollutant
Yesterday Good
PM2.5
Yesterday Good
OZONE
Current Moderate
PM2.5
Current Good
OZONE
Thursday Good
PM2.5
Thursday Good
OZONE
Friday Moderate
PM2.5
Friday Good
OZONE
Saturday Good
PM2.5
Saturday Good
OZONE
Sunday Good
OZONE
Sunday Good
PM2.5
Monday Good
PM2.5
Monday Good
OZONE

Snow Depth

Station Depth Elevation
No new snow has been reported.

Earthquake Activity

City Distance Mag. Time & Date
No recent earthquake activity has been reported nearby.
Minimum magnitude displayed is 2.5.

Coastal Water Temperatures

Place Temperature
No Stations Reporting

Nearby Weather Stations